Time,TemperatureF,DewpointF,PressureIn,WindDirection,WindDirectionDegrees,WindSpeedMPH,WindSpeedGustMPH,Humidity,HourlyPrecipIn,Conditions,Clouds,dailyrainin,SoftwareType,DateUTC
2013-03-02 00:01:00,32.4,23.0,29.97,NNE,22,0.0,-999.0,68,0.00,Sunny,,0.00,Open2300\PHP-WU,2013-03-02 05:01:00,
2013-03-02 00:05:00,32.4,23.3,29.97,NNE,22,0.0,-999.0,69,0.00,Sunny,,0.00,Open2300\PHP-WU,2013-03-02 05:05:00,
2013-03-02 00:11:00,32.2,23.5,29.97,NNE,22,0.0,-999.0,70,0.00,Sunny,,0.00,Open2300\PHP-WU,2013-03-02 05:11:00,
2013-03-02 00:18:00,31.8,23.2,29.97,NNE,22,0.0,-999.0,70,0.00,Sunny,,0.00,Open2300\PHP-WU,2013-03-02 05:18:00,
2013-03-02 00:21:00,31.6,23.3,29.96,NNE,22,0.0,-999.0,71,0.00,Sunny,,0.00,Open2300\PHP-WU,2013-03-02 05:21:00,
2013-03-02 00:27:00,31.6,23.6,29.96,NNE,22,0.0,-999.0,72,0.00,Sunny,,0.00,Open2300\PHP-WU,2013-03-02 05:27:00,
2013-03-02 00:34:00,31.6,23.6,29.97,NNE,22,0.0,-999.0,72,0.00,Sunny,,0.00,Open2300\PHP-WU,2013-03-02 05:34:00,
2013-03-02 00:39:00,31.8,23.8,29.96,NNE,22,0.0,-999.0,72,0.00,Sunny,,0.00,Open2300\PHP-WU,2013-03-02 05:39:00,
2013-03-02 00:45:00,31.8,24.2,29.96,NNE,22,0.0,-999.0,73,0.00,Sunny,,0.00,Open2300\PHP-WU,2013-03-02 05:45:00,
2013-03-02 00:52:00,31.8,24.2,29.96,NNE,22,0.0,-999.0,73,0.00,Sunny,,0.00,Open2300\PHP-WU,2013-03-02 05:52:00,
2013-03-02 00:57:00,31.3,23.6,29.96,NNE,22,0.0,-999.0,73,0.00,Sunny,,0.00,Open2300\PHP-WU,2013-03-02 05:57:00,
2013-03-02 01:03:00,31.1,23.8,29.96,NNE,22,0.0,-999.0,74,0.00,Sunny,,0.00,Open2300\PHP-WU,2013-03-02 06:03:00,
2013-03-02 01:10:00,30.7,23.7,29.97,NNE,22,0.0,-999.0,75,0.00,Sunny,,0.00,Open2300\PHP-WU,2013-03-02 06:10:00,
2013-03-02 01:15:00,30.6,23.5,29.97,NNE,22,0.0,-999.0,75,0.00,Sunny,,0.00,Open2300\PHP-WU,2013-03-02 06:15:00,
2013-03-02 01:22:00,30.2,23.5,29.97,NNE,22,0.0,-999.0,76,0.00,Sunny,,0.00,Open2300\PHP-WU,2013-03-02 06:22:00,
2013-03-02 01:27:00,30.0,23.3,29.97,NNE,22,0.0,-999.0,76,0.00,Sunny,,0.00,Open2300\PHP-WU,2013-03-02 06:27:00,
2013-03-02 01:33:00,30.0,23.3,29.97,NNE,22,0.0,-999.0,76,0.00,Sunny,,0.00,Open2300\PHP-WU,2013-03-02 06:33:00,
2013-03-02 01:39:00,30.0,23.6,29.97,NNE,22,0.0,-999.0,77,0.00,Sunny,,0.00,Open2300\PHP-WU,2013-03-02 06:39:00,
2013-03-02 01:45:00,30.0,24.0,29.98,NNE,22,0.0,-999.0,78,0.00,Sunny,,0.00,Open2300\PHP-WU,2013-03-02 06:45:00,
2013-03-02 01:52:00,30.6,24.5,29.98,NNE,22,0.0,-999.0,78,0.00,Sunny,,0.00,Open2300\PHP-WU,2013-03-02 06:52:00,
2013-03-02 01:57:00,30.7,24.7,29.97,NNE,22,0.0,-999.0,78,0.00,Sunny,,0.00,Open2300\PHP-WU,2013-03-02 06:57:00,
2013-03-02 02:03:00,30.7,24.7,29.97,NNE,22,0.0,-999.0,78,0.00,Sunny,,0.00,Open2300\PHP-WU,2013-03-02 07:03:00,
2013-03-02 02:09:00,30.6,24.5,29.97,NNE,22,0.0,-999.0,78,0.00,Sunny,,0.00,Open2300\PHP-WU,2013-03-02 07:09:00,
2013-03-02 02:15:00,30.6,24.5,29.97,NNE,22,0.0,-999.0,78,0.00,Sunny,,0.00,Open2300\PHP-WU,2013-03-02 07:15:00,
2013-03-02 02:21:00,30.4,24.7,29.96,NNE,22,0.0,-999.0,79,0.00,Sunny,,0.00,Open2300\PHP-WU,2013-03-02 07:21:00,
2013-03-02 02:27:00,30.0,24.3,29.97,NNE,22,0.0,-999.0,79,0.00,Sunny,,0.00,Open2300\PHP-WU,2013-03-02 07:27:00,
2013-03-02 02:33:00,30.0,24.3,29.96,NNE,22,0.0,-999.0,79,0.00,Sunny,,0.00,Open2300\PHP-WU,2013-03-02 07:33:00,
2013-03-02 02:39:00,30.0,24.3,29.96,NNE,22,0.0,-999.0,79,0.00,Sunny,,0.00,Open2300\PHP-WU,2013-03-02 07:39:00,
2013-03-02 02:45:00,29.8,24.1,29.96,NNE,22,0.0,-999.0,79,0.00,Sunny,,0.00,Open2300\PHP-WU,2013-03-02 07:45:00,
2013-03-02 02:51:00,29.8,24.4,29.95,NNE,22,0.0,-999.0,80,0.00,Sunny,,0.00,Open2300\PHP-WU,2013-03-02 07:51:00,
2013-03-02 02:57:00,29.8,24.4,29.95,NNE,22,0.0,-999.0,80,0.00,Sunny,,0.00,Open2300\PHP-WU,2013-03-02 07:57:00,
2013-03-02 03:03:00,29.8,24.4,29.95,NNE,22,0.0,-999.0,80,0.00,Sunny,,0.00,Open2300\PHP-WU,2013-03-02 08:03:00,
2013-03-02 03:09:00,30.0,24.9,29.96,NNE,22,0.0,-999.0,81,0.00,Sunny,,0.00,Open2300\PHP-WU,2013-03-02 08:09:00,
2013-03-02 03:15:00,30.0,24.9,29.95,NNE,22,0.0,-999.0,81,0.00,Sunny,,0.00,Open2300\PHP-WU,2013-03-02 08:15:00,
2013-03-02 03:21:00,30.0,24.9,29.95,NNE,22,0.0,-999.0,81,0.00,Sunny,,0.00,Open2300\PHP-WU,2013-03-02 08:21:00,
2013-03-02 03:27:00,30.0,24.9,29.95,NNE,22,0.0,-999.0,81,0.00,Sunny,,0.00,Open2300\PHP-WU,2013-03-02 08:27:00,
2013-03-02 03:33:00,30.0,24.9,29.95,NNE,22,0.0,-999.0,81,0.00,Sunny,,0.00,Open2300\PHP-WU,2013-03-02 08:33:00,
2013-03-02 03:39:00,29.7,24.3,29.95,NNE,22,0.0,-999.0,80,0.00,Sunny,,0.00,Open2300\PHP-WU,2013-03-02 08:39:00,
2013-03-02 03:45:00,29.5,24.4,29.95,NNE,22,0.0,-999.0,81,0.00,Sunny,,0.00,Open2300\PHP-WU,2013-03-02 08:45:00,
2013-03-02 03:51:00,29.3,24.2,29.95,NNE,22,0.0,-999.0,81,0.00,Sunny,,0.00,Open2300\PHP-WU,2013-03-02 08:51:00,
2013-03-02 03:57:00,28.9,23.8,29.95,NNE,22,0.0,-999.0,81,0.00,Sunny,,0.00,Open2300\PHP-WU,2013-03-02 08:57:00,
2013-03-02 04:03:00,28.6,23.5,29.95,NNE,22,0.0,-999.0,81,0.00,Sunny,,0.00,Open2300\PHP-WU,2013-03-02 09:03:00,
2013-03-02 04:09:00,27.9,22.7,29.94,NNE,22,0.0,-999.0,81,0.00,Sunny,,0.00,Open2300\PHP-WU,2013-03-02 09:09:00,
2013-03-02 04:15:00,27.3,22.2,29.94,NNE,22,0.0,-999.0,81,0.00,Sunny,,0.00,Open2300\PHP-WU,2013-03-02 09:15:00,
2013-03-02 04:21:00,27.1,22.0,29.95,NNE,22,0.0,-999.0,81,0.00,Sunny,,0.00,Open2300\PHP-WU,2013-03-02 09:21:00,
2013-03-02 04:27:00,26.8,22.0,29.95,NNE,22,0.0,-999.0,82,0.00,Sunny,,0.00,Open2300\PHP-WU,2013-03-02 09:27:00,
2013-03-02 04:33:00,26.4,21.3,29.95,NNE,22,0.0,-999.0,81,0.00,Sunny,,0.00,Open2300\PHP-WU,2013-03-02 09:33:00,
2013-03-02 04:39:00,26.2,21.4,29.94,NNE,22,0.0,-999.0,82,0.00,Sunny,,0.00,Open2300\PHP-WU,2013-03-02 09:39:00,
2013-03-02 04:45:00,26.8,22.2,29.94,NNE,22,0.0,-999.0,83,0.00,Sunny,,0.00,Open2300\PHP-WU,2013-03-02 09:45:00,
2013-03-02 04:51:00,26.6,22.1,29.95,NNE,22,0.0,-999.0,83,0.00,Sunny,,0.00,Open2300\PHP-WU,2013-03-02 09:51:00,
2013-03-02 04:57:00,26.4,21.9,29.94,NNE,22,0.0,-999.0,83,0.00,Sunny,,0.00,Open2300\PHP-WU,2013-03-02 09:57:00,
2013-03-02 05:03:00,26.1,21.6,29.94,NNE,22,0.0,-999.0,83,0.00,Sunny,,0.00,Open2300\PHP-WU,2013-03-02 10:03:00,
2013-03-02 05:09:00,25.9,21.4,29.94,NNE,22,0.0,-999.0,83,0.00,Sunny,,0.00,Open2300\PHP-WU,2013-03-02 10:09:00,
2013-03-02 05:15:00,26.2,21.7,29.94,NNE,22,0.0,-999.0,83,0.00,Sunny,,0.00,Open2300\PHP-WU,2013-03-02 10:15:00,
2013-03-02 05:21:00,26.1,21.6,29.94,NNE,22,0.0,-999.0,83,0.00,Sunny,,0.00,Open2300\PHP-WU,2013-03-02 10:21:00,
2013-03-02 05:27:00,25.9,21.4,29.94,NNE,22,0.0,-999.0,83,0.00,Sunny,,0.00,Open2300\PHP-WU,2013-03-02 10:27:00,
2013-03-02 05:33:00,25.5,21.1,29.94,NNE,22,0.0,-999.0,83,0.00,Sunny,,0.00,Open2300\PHP-WU,2013-03-02 10:33:00,
2013-03-02 05:39:00,25.5,21.3,29.94,NNE,22,0.0,-999.0,84,0.00,Sunny,,0.00,Open2300\PHP-WU,2013-03-02 10:39:00,
2013-03-02 05:45:00,25.5,21.3,29.94,NNE,22,0.0,-999.0,84,0.00,Sunny,,0.00,Open2300\PHP-WU,2013-03-02 10:45:00,
2013-03-02 05:51:00,25.5,21.1,29.95,NNE,22,0.0,-999.0,83,0.00,Sunny,,0.00,Open2300\PHP-WU,2013-03-02 10:51:00,
2013-03-02 05:57:00,25.3,20.9,29.95,NNE,22,0.0,-999.0,83,0.00,Sunny,,0.00,Open2300\PHP-WU,2013-03-02 10:57:00,
2013-03-02 06:03:00,25.2,21.0,29.95,NNE,22,0.0,-999.0,84,0.00,Sunny,,0.00,Open2300\PHP-WU,2013-03-02 11:03:00,
2013-03-02 06:09:00,25.2,21.0,29.94,NNE,22,0.0,-999.0,84,0.00,Sunny,,0.00,Open2300\PHP-WU,2013-03-02 11:09:00,
2013-03-02 06:15:00,25.5,21.3,29.94,NNE,22,0.0,-999.0,84,0.00,Sunny,,0.00,Open2300\PHP-WU,2013-03-02 11:15:00,
2013-03-02 06:21:00,25.5,21.3,29.94,NNE,22,0.0,-999.0,84,0.00,Sunny,,0.00,Open2300\PHP-WU,2013-03-02 11:21:00,
2013-03-02 06:27:00,25.3,21.2,29.94,NNE,22,0.0,-999.0,84,0.00,Sunny,,0.00,Open2300\PHP-WU,2013-03-02 11:27:00,
2013-03-02 06:33:00,25.0,20.8,29.95,NNE,22,0.0,-999.0,84,0.00,Sunny,,0.00,Open2300\PHP-WU,2013-03-02 11:33:00,
2013-03-02 06:39:00,25.0,20.8,29.95,NNE,22,0.0,-999.0,84,0.00,Sunny,,0.00,Open2300\PHP-WU,2013-03-02 11:39:00,
2013-03-02 06:45:00,25.0,20.8,29.95,NNE,22,0.0,-999.0,84,0.00,Sunny,,0.00,Open2300\PHP-WU,2013-03-02 11:45:00,
2013-03-02 06:51:00,25.0,20.8,29.95,NNE,22,0.0,-999.0,84,0.00,Sunny,,0.00,Open2300\PHP-WU,2013-03-02 11:51:00,
2013-03-02 06:57:00,25.0,20.8,29.95,NNE,22,0.0,-999.0,84,0.00,Sunny,,0.00,Open2300\PHP-WU,2013-03-02 11:57:00,
2013-03-02 07:03:00,25.0,20.8,29.96,NNE,22,0.0,-999.0,84,0.00,Sunny,,0.00,Open2300\PHP-WU,2013-03-02 12:03:00,
2013-03-02 07:09:00,25.3,21.2,29.96,NNE,22,0.0,-999.0,84,0.00,Sunny,,0.00,Open2300\PHP-WU,2013-03-02 12:09:00,
2013-03-02 07:15:00,25.5,21.3,29.96,NNE,22,0.0,-999.0,84,0.00,Sunny,,0.00,Open2300\PHP-WU,2013-03-02 12:15:00,
2013-03-02 07:21:00,25.9,22.0,29.97,NNE,22,0.0,-999.0,85,0.00,Sunny,,0.00,Open2300\PHP-WU,2013-03-02 12:21:00,
2013-03-02 07:27:00,26.2,22.3,29.96,NNE,22,0.0,-999.0,85,0.00,Sunny,,0.00,Open2300\PHP-WU,2013-03-02 12:27:00,
2013-03-02 07:34:00,27.0,23.2,29.96,NNE,22,0.0,-999.0,85,0.00,Sunny,,0.00,Open2300\PHP-WU,2013-03-02 12:34:00,
2013-03-02 07:40:00,27.5,23.5,29.96,NNE,22,0.0,-999.0,85,0.00,Sunny,,0.00,Open2300\PHP-WU,2013-03-02 12:40:00,
2013-03-02 07:46:00,28.0,24.1,29.96,NNE,22,0.0,-999.0,85,0.00,Sunny,,0.00,Open2300\PHP-WU,2013-03-02 12:46:00,
2013-03-02 07:52:00,28.8,24.8,29.96,NNE,22,0.0,-999.0,85,0.00,Sunny,,0.00,Open2300\PHP-WU,2013-03-02 12:52:00,
2013-03-02 07:58:00,29.3,25.3,29.97,NNE,22,0.0,-999.0,85,0.00,Sunny,,0.00,Open2300\PHP-WU,2013-03-02 12:58:00,
2013-03-02 08:04:00,30.0,26.1,29.97,NNE,22,0.0,-999.0,85,0.00,Sunny,,0.00,Open2300\PHP-WU,2013-03-02 13:04:00,
2013-03-02 08:10:00,30.4,26.4,29.97,NNE,22,0.0,-999.0,85,0.00,Sunny,,0.00,Open2300\PHP-WU,2013-03-02 13:10:00,
2013-03-02 08:16:00,30.9,27.0,29.97,NNE,22,0.0,-999.0,85,0.00,Sunny,,0.00,Open2300\PHP-WU,2013-03-02 13:16:00,
2013-03-02 08:22:00,31.6,27.7,29.98,NNE,22,0.0,-999.0,85,0.00,Sunny,,0.00,Open2300\PHP-WU,2013-03-02 13:22:00,
2013-03-02 08:28:00,32.0,27.8,29.97,NNE,22,0.0,-999.0,84,0.00,Sunny,,0.00,Open2300\PHP-WU,2013-03-02 13:28:00,
2013-03-02 08:34:00,32.4,28.2,29.98,NNE,22,0.0,-999.0,84,0.00,Sunny,,0.00,Open2300\PHP-WU,2013-03-02 13:34:00,
2013-03-02 08:40:00,32.9,28.3,29.98,NNE,22,0.0,-999.0,83,0.00,Sunny,,0.00,Open2300\PHP-WU,2013-03-02 13:40:00,
2013-03-02 08:46:00,33.6,28.9,29.97,NNE,22,0.0,-999.0,83,0.00,Sunny,,0.00,Open2300\PHP-WU,2013-03-02 13:46:00,
2013-03-02 08:52:00,34.3,29.3,29.97,NNE,22,0.0,-999.0,82,0.00,Sunny,,0.00,Open2300\PHP-WU,2013-03-02 13:52:00,
2013-03-02 08:58:00,34.9,29.6,29.97,NNE,22,0.0,-999.0,81,0.00,Sunny,,0.00,Open2300\PHP-WU,2013-03-02 13:58:00,
2013-03-02 09:04:00,35.6,30.0,29.96,NNE,22,0.0,-999.0,80,0.00,Sunny,,0.00,Open2300\PHP-WU,2013-03-02 14:04:00,
2013-03-02 09:10:00,36.1,30.2,29.96,NNE,22,0.0,-999.0,79,0.00,Sunny,,0.00,Open2300\PHP-WU,2013-03-02 14:10:00,
2013-03-02 09:16:00,37.0,30.5,29.96,NNE,22,0.0,-999.0,77,0.00,Sunny,,0.00,Open2300\PHP-WU,2013-03-02 14:16:00,
2013-03-02 09:22:00,37.9,31.0,29.96,NNE,22,0.0,-999.0,76,0.00,Sunny,,0.00,Open2300\PHP-WU,2013-03-02 14:22:00,
2013-03-02 09:28:00,39.0,31.4,29.96,WSW,247,0.0,-999.0,74,0.00,Sunny,,0.00,Open2300\PHP-WU,2013-03-02 14:28:00,
2013-03-02 09:34:00,40.3,31.3,29.96,North,0,0.0,-999.0,70,0.00,Sunny,,0.00,Open2300\PHP-WU,2013-03-02 14:34:00,
2013-03-02 09:40:00,41.5,30.6,29.95,NE,45,0.0,-999.0,65,0.00,Sunny,,0.00,Open2300\PHP-WU,2013-03-02 14:40:00,
2013-03-02 09:46:00,42.6,30.1,29.95,NNW,337,0.0,-999.0,61,0.00,Sunny,,0.00,Open2300\PHP-WU,2013-03-02 14:46:00,
2013-03-02 09:52:00,44.1,28.9,29.95,North,0,0.0,-999.0,55,0.00,Sunny,,0.00,Open2300\PHP-WU,2013-03-02 14:52:00,
2013-03-02 09:58:00,44.6,28.9,29.95,NNE,22,0.0,-999.0,54,0.00,Sunny,,0.00,Open2300\PHP-WU,2013-03-02 14:58:00,
2013-03-02 10:04:00,45.0,29.3,29.95,North,0,0.0,-999.0,54,0.00,Sunny,,0.00,Open2300\PHP-WU,2013-03-02 15:04:00,
2013-03-02 10:10:00,45.7,29.5,29.94,NNW,337,0.0,-999.0,53,0.00,Sunny,,0.00,Open2300\PHP-WU,2013-03-02 15:10:00,
2013-03-02 10:16:00,46.0,27.4,29.94,NNW,337,0.0,-999.0,48,0.00,Sunny,,0.00,Open2300\PHP-WU,2013-03-02 15:16:00,
2013-03-02 10:22:00,46.8,28.0,29.94,NNE,22,0.0,-999.0,48,0.00,Sunny,,0.00,Open2300\PHP-WU,2013-03-02 15:22:00,
2013-03-02 10:28:00,46.6,27.3,29.94,NNE,22,0.0,-999.0,47,0.00,Sunny,,0.00,Open2300\PHP-WU,2013-03-02 15:28:00,
2013-03-02 10:34:00,46.9,27.6,29.94,SSW,202,0.0,-999.0,47,0.00,Sunny,,0.00,Open2300\PHP-WU,2013-03-02 15:34:00,
2013-03-02 10:40:00,47.5,28.1,29.94,NNW,337,0.0,-999.0,47,0.00,Sunny,,0.00,Open2300\PHP-WU,2013-03-02 15:40:00,
2013-03-02 10:46:00,47.8,27.9,29.94,ENE,67,0.0,-999.0,46,0.00,Sunny,,0.00,Open2300\PHP-WU,2013-03-02 15:46:00,
2013-03-02 10:52:00,46.0,25.7,29.94,NNE,22,0.0,-999.0,45,0.00,Sunny,,0.00,Open2300\PHP-WU,2013-03-02 15:52:00,
2013-03-02 10:58:00,45.3,26.2,29.94,North,0,0.0,-999.0,47,0.00,Sunny,,0.00,Open2300\PHP-WU,2013-03-02 15:58:00,
2013-03-02 11:04:00,45.7,26.5,29.94,NNE,22,0.0,-999.0,47,0.00,Sunny,,0.00,Open2300\PHP-WU,2013-03-02 16:04:00,
2013-03-02 11:10:00,45.7,26.0,29.94,North,0,0.0,-999.0,46,0.00,Sunny,,0.00,Open2300\PHP-WU,2013-03-02 16:10:00,
2013-03-02 11:16:00,46.2,26.4,29.93,NW,315,0.0,-999.0,46,0.00,Sunny,,0.00,Open2300\PHP-WU,2013-03-02 16:16:00,
2013-03-02 11:22:00,46.2,25.9,29.93,NNW,337,0.0,-999.0,45,0.00,Sunny,,0.00,Open2300\PHP-WU,2013-03-02 16:22:00,
2013-03-02 11:28:00,46.2,26.4,29.93,WSW,247,0.0,-999.0,46,0.00,Sunny,,0.00,Open2300\PHP-WU,2013-03-02 16:28:00,
2013-03-02 11:34:00,47.7,27.7,29.93,NW,315,0.0,-999.0,46,0.00,Sunny,,0.00,Open2300\PHP-WU,2013-03-02 16:34:00,
2013-03-02 11:40:00,47.5,27.0,29.93,WSW,247,0.0,-999.0,45,0.00,Sunny,,0.00,Open2300\PHP-WU,2013-03-02 16:40:00,
2013-03-02 11:46:00,47.3,26.3,29.92,SW,225,0.7,-999.0,44,0.00,Sunny,,0.00,Open2300\PHP-WU,2013-03-02 16:46:00,
2013-03-02 11:52:00,46.9,26.0,29.92,West,270,0.0,-999.0,44,0.00,Sunny,,0.00,Open2300\PHP-WU,2013-03-02 16:52:00,
2013-03-02 11:57:00,47.1,26.7,29.92,North,0,0.0,-999.0,45,0.00,Sunny,,0.00,Open2300\PHP-WU,2013-03-02 16:57:00,
2013-03-02 12:04:00,46.9,26.2,29.92,NNW,337,0.0,-999.0,44,0.00,Sunny,,0.00,Open2300\PHP-WU,2013-03-02 17:04:00,
2013-03-02 12:10:00,47.5,26.5,29.92,North,0,0.0,-999.0,44,0.00,Sunny,,0.00,Open2300\PHP-WU,2013-03-02 17:10:00,
2013-03-02 12:15:00,47.8,26.8,29.91,SSW,202,0.0,-999.0,44,0.00,Sunny,,0.00,Open2300\PHP-WU,2013-03-02 17:15:00,
2013-03-02 12:22:00,48.7,28.2,29.91,WSW,247,0.0,-999.0,45,0.00,Sunny,,0.00,Open2300\PHP-WU,2013-03-02 17:22:00,
2013-03-02 12:27:00,49.1,28.0,29.91,WSW,247,0.0,-999.0,44,0.00,Sunny,,0.00,Open2300\PHP-WU,2013-03-02 17:27:00,
2013-03-02 12:34:00,49.3,27.6,29.91,WSW,247,0.0,-999.0,43,0.00,Sunny,,0.00,Open2300\PHP-WU,2013-03-02 17:34:00,
2013-03-02 12:39:00,50.2,28.4,29.91,WSW,247,0.0,-999.0,43,0.00,Sunny,,0.00,Open2300\PHP-WU,2013-03-02 17:39:00,
2013-03-02 12:46:00,49.3,26.5,29.90,WSW,247,0.0,-999.0,41,0.00,Sunny,,0.00,Open2300\PHP-WU,2013-03-02 17:46:00,
2013-03-02 12:52:00,48.4,26.2,29.90,NNE,22,0.0,-999.0,42,0.00,Sunny,,0.00,Open2300\PHP-WU,2013-03-02 17:52:00,
2013-03-02 12:57:00,47.7,26.7,29.90,WSW,247,0.0,-999.0,44,0.00,Sunny,,0.00,Open2300\PHP-WU,2013-03-02 17:57:00,
2013-03-02 13:03:00,47.3,25.3,29.90,SW,225,0.0,-999.0,42,0.00,Sunny,,0.00,Open2300\PHP-WU,2013-03-02 18:03:00,
2013-03-02 13:09:00,47.1,25.6,29.89,NNE,22,0.0,-999.0,43,0.00,Sunny,,0.00,Open2300\PHP-WU,2013-03-02 18:09:00,
2013-03-02 13:15:00,47.5,26.0,29.89,WSW,247,0.0,-999.0,43,0.00,Sunny,,0.00,Open2300\PHP-WU,2013-03-02 18:15:00,
2013-03-02 13:22:00,48.0,26.4,29.89,WSW,247,0.0,-999.0,43,0.00,Sunny,,0.00,Open2300\PHP-WU,2013-03-02 18:22:00,
2013-03-02 13:27:00,48.9,26.7,29.89,WSW,247,0.0,-999.0,42,0.00,Sunny,,0.00,Open2300\PHP-WU,2013-03-02 18:27:00,
2013-03-02 13:33:00,49.1,26.3,29.89,NE,45,0.0,-999.0,41,0.00,Sunny,,0.00,Open2300\PHP-WU,2013-03-02 18:33:00,
2013-03-02 13:39:00,48.7,26.5,29.88,SE,135,0.0,-999.0,42,0.00,Sunny,,0.00,Open2300\PHP-WU,2013-03-02 18:39:00,
2013-03-02 13:45:00,48.2,26.6,29.88,SW,225,0.0,-999.0,43,0.00,Sunny,,0.00,Open2300\PHP-WU,2013-03-02 18:45:00,
2013-03-02 13:51:00,48.4,26.2,29.88,North,0,0.0,-999.0,42,0.00,Sunny,,0.00,Open2300\PHP-WU,2013-03-02 18:51:00,
2013-03-02 13:57:00,49.6,27.9,29.88,WSW,247,0.0,-999.0,43,0.00,Sunny,,0.00,Open2300\PHP-WU,2013-03-02 18:57:00,
2013-03-02 14:03:00,51.3,28.3,29.88,WSW,247,0.0,-999.0,41,0.00,Sunny,,0.00,Open2300\PHP-WU,2013-03-02 19:03:00,
2013-03-02 14:09:00,51.1,28.1,29.88,WSW,247,0.0,-999.0,41,0.00,Sunny,,0.00,Open2300\PHP-WU,2013-03-02 19:09:00,
2013-03-02 14:15:00,50.9,28.0,29.87,SW,225,0.2,-999.0,41,0.00,Sunny,,0.00,Open2300\PHP-WU,2013-03-02 19:15:00,
2013-03-02 14:21:00,49.5,26.1,29.87,NNE,22,0.0,-999.0,40,0.00,Sunny,,0.00,Open2300\PHP-WU,2013-03-02 19:21:00,
2013-03-02 14:27:00,48.0,25.4,29.87,North,0,0.0,-999.0,41,0.00,Sunny,,0.00,Open2300\PHP-WU,2013-03-02 19:27:00,
2013-03-02 14:33:00,48.0,25.9,29.88,SSE,157,0.0,-999.0,42,0.00,Sunny,,0.00,Open2300\PHP-WU,2013-03-02 19:33:00,
2013-03-02 14:39:00,48.0,25.9,29.88,North,0,0.0,-999.0,42,0.00,Sunny,,0.00,Open2300\PHP-WU,2013-03-02 19:39:00,
2013-03-02 14:45:00,47.7,26.1,29.88,NNW,337,2.7,-999.0,43,0.00,Sunny,,0.00,Open2300\PHP-WU,2013-03-02 19:45:00,
2013-03-02 14:51:00,46.9,25.5,29.87,NNE,22,0.0,-999.0,43,0.00,Sunny,,0.00,Open2300\PHP-WU,2013-03-02 19:51:00,
2013-03-02 14:57:00,46.2,25.4,29.87,NNE,22,0.0,-999.0,44,0.00,Sunny,,0.00,Open2300\PHP-WU,2013-03-02 19:57:00,
2013-03-02 15:03:00,46.0,25.2,29.87,North,0,0.0,-999.0,44,0.00,Sunny,,0.00,Open2300\PHP-WU,2013-03-02 20:03:00,
2013-03-02 15:09:00,46.0,25.2,29.87,NNW,337,0.0,-999.0,44,0.00,Sunny,,0.00,Open2300\PHP-WU,2013-03-02 20:09:00,
2013-03-02 15:15:00,46.0,25.7,29.87,West,270,0.0,-999.0,45,0.00,Sunny,,0.00,Open2300\PHP-WU,2013-03-02 20:15:00,
2013-03-02 15:21:00,46.0,25.2,29.87,North,0,0.0,-999.0,44,0.00,Sunny,,0.00,Open2300\PHP-WU,2013-03-02 20:21:00,
2013-03-02 15:27:00,45.7,25.4,29.87,NNE,22,0.0,-999.0,45,0.00,Sunny,,0.00,Open2300\PHP-WU,2013-03-02 20:27:00,
2013-03-02 15:33:00,45.7,25.4,29.87,WNW,292,0.0,-999.0,45,0.00,Sunny,,0.00,Open2300\PHP-WU,2013-03-02 20:33:00,
2013-03-02 15:39:00,45.7,25.4,29.87,NNW,337,0.0,-999.0,45,0.00,Sunny,,0.00,Open2300\PHP-WU,2013-03-02 20:39:00,
2013-03-02 15:45:00,46.0,25.7,29.87,North,0,0.0,-999.0,45,0.00,Sunny,,0.00,Open2300\PHP-WU,2013-03-02 20:45:00,
2013-03-02 15:51:00,46.0,25.7,29.87,North,0,0.0,-999.0,45,0.00,Sunny,,0.00,Open2300\PHP-WU,2013-03-02 20:51:00,
2013-03-02 15:57:00,46.0,25.7,29.87,North,0,0.0,-999.0,45,0.00,Sunny,,0.00,Open2300\PHP-WU,2013-03-02 20:57:00,
2013-03-02 16:03:00,46.0,25.7,29.87,NNW,337,0.0,-999.0,45,0.00,Sunny,,0.00,Open2300\PHP-WU,2013-03-02 21:03:00,
2013-03-02 16:09:00,45.7,25.4,29.87,West,270,0.0,-999.0,45,0.00,Sunny,,0.00,Open2300\PHP-WU,2013-03-02 21:09:00,
2013-03-02 16:15:00,46.0,25.7,29.87,NNE,22,0.0,-999.0,45,0.00,Sunny,,0.00,Open2300\PHP-WU,2013-03-02 21:15:00,
2013-03-02 16:21:00,45.7,26.0,29.87,West,270,0.0,-999.0,46,0.00,Sunny,,0.00,Open2300\PHP-WU,2013-03-02 21:21:00,
2013-03-02 16:27:00,45.5,25.3,29.87,North,0,2.0,-999.0,45,0.00,Sunny,,0.00,Open2300\PHP-WU,2013-03-02 21:27:00,
2013-03-02 16:33:00,45.1,25.5,29.87,NNW,337,0.0,-999.0,46,0.00,Sunny,,0.00,Open2300\PHP-WU,2013-03-02 21:33:00,
2013-03-02 16:39:00,45.0,25.3,29.87,North,0,0.0,-999.0,46,0.00,Sunny,,0.00,Open2300\PHP-WU,2013-03-02 21:39:00,
2013-03-02 16:45:00,45.0,25.3,29.88,NNE,22,0.0,-999.0,46,0.00,Sunny,,0.00,Open2300\PHP-WU,2013-03-02 21:45:00,
2013-03-02 16:51:00,44.8,25.7,29.88,North,0,3.8,-999.0,47,0.00,Sunny,,0.00,Open2300\PHP-WU,2013-03-02 21:51:00,
2013-03-02 16:57:00,44.8,25.7,29.87,NNE,22,0.0,-999.0,47,0.00,Sunny,,0.00,Open2300\PHP-WU,2013-03-02 21:57:00,
2013-03-02 17:03:00,44.4,25.4,29.88,North,0,0.0,-999.0,47,0.00,Sunny,,0.00,Open2300\PHP-WU,2013-03-02 22:03:00,
2013-03-02 17:09:00,44.4,25.9,29.88,NNE,22,0.0,-999.0,48,0.00,Sunny,,0.00,Open2300\PHP-WU,2013-03-02 22:09:00,
2013-03-02 17:15:00,43.9,25.4,29.88,North,0,0.0,-999.0,48,0.00,Sunny,,0.00,Open2300\PHP-WU,2013-03-02 22:15:00,
2013-03-02 17:21:00,43.5,25.1,29.88,NNW,337,0.0,-999.0,48,0.00,Sunny,,0.00,Open2300\PHP-WU,2013-03-02 22:21:00,
2013-03-02 17:27:00,43.3,25.5,29.89,NNE,22,0.0,-999.0,49,0.00,Sunny,,0.00,Open2300\PHP-WU,2013-03-02 22:27:00,
2013-03-02 17:33:00,43.0,25.1,29.89,North,0,0.0,-999.0,49,0.00,Sunny,,0.00,Open2300\PHP-WU,2013-03-02 22:33:00,
2013-03-02 17:39:00,43.0,25.1,29.89,North,0,0.0,-999.0,49,0.00,Sunny,,0.00,Open2300\PHP-WU,2013-03-02 22:39:00,
2013-03-02 17:45:00,42.6,25.3,29.89,NNE,22,0.0,-999.0,50,0.00,Sunny,,0.00,Open2300\PHP-WU,2013-03-02 22:45:00,
2013-03-02 17:51:00,42.4,25.2,29.90,North,0,0.0,-999.0,50,0.00,Sunny,,0.00,Open2300\PHP-WU,2013-03-02 22:51:00,
2013-03-02 17:57:00,42.4,25.2,29.90,North,0,0.0,-999.0,50,0.00,Sunny,,0.00,Open2300\PHP-WU,2013-03-02 22:57:00,
2013-03-02 18:03:00,42.1,25.2,29.90,NE,45,0.0,-999.0,51,0.00,Sunny,,0.00,Open2300\PHP-WU,2013-03-02 23:03:00,
2013-03-02 18:09:00,42.1,25.2,29.90,North,0,0.0,-999.0,51,0.00,Sunny,,0.00,Open2300\PHP-WU,2013-03-02 23:09:00,
2013-03-02 18:15:00,41.9,25.1,29.90,NNW,337,0.0,-999.0,51,0.00,Sunny,,0.00,Open2300\PHP-WU,2013-03-02 23:15:00,
2013-03-02 18:21:00,41.7,25.3,29.91,NE,45,0.0,-999.0,52,0.00,Sunny,,0.00,Open2300\PHP-WU,2013-03-02 23:21:00,
2013-03-02 18:27:00,41.5,25.1,29.91,ENE,67,0.0,-999.0,52,0.00,Sunny,,0.00,Open2300\PHP-WU,2013-03-02 23:27:00,
2013-03-02 18:33:00,41.5,25.1,29.91,North,0,0.0,-999.0,52,0.00,Sunny,,0.00,Open2300\PHP-WU,2013-03-02 23:33:00,
2013-03-02 18:39:00,41.4,25.0,29.91,NNW,337,0.0,-999.0,52,0.00,Sunny,,0.00,Open2300\PHP-WU,2013-03-02 23:39:00,
2013-03-02 18:45:00,41.2,24.8,29.92,NNW,337,0.0,-999.0,52,0.00,Sunny,,0.00,Open2300\PHP-WU,2013-03-02 23:45:00,
2013-03-02 18:51:00,41.2,24.8,29.93,NNE,22,0.0,-999.0,52,0.00,Sunny,,0.00,Open2300\PHP-WU,2013-03-02 23:51:00,
2013-03-02 18:57:00,40.8,24.9,29.93,NNE,22,0.0,-999.0,53,0.00,Sunny,,0.00,Open2300\PHP-WU,2013-03-02 23:57:00,
2013-03-02 19:03:00,40.8,24.9,29.93,NNE,22,0.0,-999.0,53,0.00,Sunny,,0.00,Open2300\PHP-WU,2013-03-03 00:03:00,
2013-03-02 19:09:00,40.8,24.9,29.93,North,0,0.0,-999.0,53,0.00,Sunny,,0.00,Open2300\PHP-WU,2013-03-03 00:09:00,
2013-03-02 19:15:00,40.6,24.7,29.94,North,0,0.0,-999.0,53,0.00,Sunny,,0.00,Open2300\PHP-WU,2013-03-03 00:15:00,
2013-03-02 19:21:00,40.3,24.8,29.94,North,0,0.0,-999.0,54,0.00,Sunny,,0.00,Open2300\PHP-WU,2013-03-03 00:21:00,
2013-03-02 19:27:00,39.9,24.5,29.94,North,0,0.0,-999.0,54,0.00,Sunny,,0.00,Open2300\PHP-WU,2013-03-03 00:27:00,
2013-03-02 19:34:00,39.4,24.0,29.94,NNE,22,0.0,-999.0,54,0.00,Sunny,,0.00,Open2300\PHP-WU,2013-03-03 00:34:00,
2013-03-02 19:40:00,39.0,24.1,29.94,NNE,22,0.0,-999.0,55,0.00,Sunny,,0.00,Open2300\PHP-WU,2013-03-03 00:40:00,
2013-03-02 19:46:00,38.8,23.9,29.94,NNE,22,0.0,-999.0,55,0.00,Sunny,,0.00,Open2300\PHP-WU,2013-03-03 00:46:00,
2013-03-02 19:52:00,38.3,23.5,29.94,NNW,337,0.0,-999.0,55,0.00,Sunny,,0.00,Open2300\PHP-WU,2013-03-03 00:52:00,
2013-03-02 19:58:00,38.1,23.7,29.94,North,0,0.0,-999.0,56,0.00,Sunny,,0.00,Open2300\PHP-WU,2013-03-03 00:58:00,
2013-03-02 20:04:00,37.6,23.7,29.94,NNW,337,0.0,-999.0,57,0.00,Sunny,,0.00,Open2300\PHP-WU,2013-03-03 01:04:00,
2013-03-02 20:10:00,37.8,23.0,29.94,NNE,22,0.0,-999.0,55,0.00,Sunny,,0.00,Open2300\PHP-WU,2013-03-03 01:10:00,
2013-03-02 20:16:00,37.8,23.0,29.94,North,0,0.0,-999.0,55,0.00,Sunny,,0.00,Open2300\PHP-WU,2013-03-03 01:16:00,
2013-03-02 20:22:00,37.8,22.5,29.94,North,0,0.0,-999.0,54,0.00,Sunny,,0.00,Open2300\PHP-WU,2013-03-03 01:22:00,
2013-03-02 20:28:00,37.6,21.9,29.95,North,0,3.4,-999.0,53,0.00,Sunny,,0.00,Open2300\PHP-WU,2013-03-03 01:28:00,
2013-03-02 20:34:00,37.4,21.8,29.95,NNW,337,0.0,-999.0,53,0.00,Sunny,,0.00,Open2300\PHP-WU,2013-03-03 01:34:00,
2013-03-02 20:40:00,37.2,21.6,29.96,NNW,337,0.0,-999.0,53,0.00,Sunny,,0.00,Open2300\PHP-WU,2013-03-03 01:40:00,
2013-03-02 20:46:00,37.2,21.2,29.96,NE,45,0.0,-999.0,52,0.00,Sunny,,0.00,Open2300\PHP-WU,2013-03-03 01:46:00,
2013-03-02 20:52:00,37.2,21.6,29.96,NNE,22,0.0,-999.0,53,0.00,Sunny,,0.00,Open2300\PHP-WU,2013-03-03 01:52:00,
2013-03-02 20:58:00,37.2,21.2,29.96,NNE,22,0.0,-999.0,52,0.00,Sunny,,0.00,Open2300\PHP-WU,2013-03-03 01:58:00,
2013-03-02 21:04:00,36.9,21.3,29.97,North,0,0.0,-999.0,53,0.00,Sunny,,0.00,Open2300\PHP-WU,2013-03-03 02:04:00,
2013-03-02 21:10:00,36.5,21.0,29.97,North,0,0.0,-999.0,53,0.00,Sunny,,0.00,Open2300\PHP-WU,2013-03-03 02:10:00,
2013-03-02 21:16:00,36.3,20.8,29.97,WSW,247,0.0,-999.0,53,0.00,Sunny,,0.00,Open2300\PHP-WU,2013-03-03 02:16:00,
2013-03-02 21:22:00,35.8,20.8,29.98,NNE,22,0.0,-999.0,54,0.00,Sunny,,0.00,Open2300\PHP-WU,2013-03-03 02:22:00,
2013-03-02 21:28:00,35.4,20.4,29.97,NNW,337,0.0,-999.0,54,0.00,Sunny,,0.00,Open2300\PHP-WU,2013-03-03 02:28:00,
2013-03-02 21:34:00,35.2,20.2,29.98,NNE,22,0.0,-999.0,54,0.00,Sunny,,0.00,Open2300\PHP-WU,2013-03-03 02:34:00,
2013-03-02 21:40:00,34.3,19.8,29.98,NNE,22,0.0,-999.0,55,0.00,Sunny,,0.00,Open2300\PHP-WU,2013-03-03 02:40:00,
2013-03-02 21:46:00,34.2,19.6,29.98,NNE,22,0.0,-999.0,55,0.00,Sunny,,0.00,Open2300\PHP-WU,2013-03-03 02:46:00,
2013-03-02 21:52:00,33.6,19.5,29.98,ENE,67,0.0,-999.0,56,0.00,Sunny,,0.00,Open2300\PHP-WU,2013-03-03 02:52:00,
2013-03-02 21:58:00,33.8,19.7,29.98,NNE,22,0.0,-999.0,56,0.00,Sunny,,0.00,Open2300\PHP-WU,2013-03-03 02:58:00,
2013-03-02 22:04:00,33.6,19.1,29.98,North,0,0.0,-999.0,55,0.00,Sunny,,0.00,Open2300\PHP-WU,2013-03-03 03:04:00,
2013-03-02 22:10:00,33.6,19.1,29.98,NNW,337,0.0,-999.0,55,0.00,Sunny,,0.00,Open2300\PHP-WU,2013-03-03 03:10:00,
2013-03-02 22:16:00,33.4,19.3,29.98,NNW,337,0.0,-999.0,56,0.00,Sunny,,0.00,Open2300\PHP-WU,2013-03-03 03:16:00,
2013-03-02 22:22:00,32.9,18.8,29.98,North,0,0.0,-999.0,56,0.00,Sunny,,0.00,Open2300\PHP-WU,2013-03-03 03:22:00,
2013-03-02 22:27:00,32.7,18.7,29.98,NNE,22,0.0,-999.0,56,0.00,Sunny,,0.00,Open2300\PHP-WU,2013-03-03 03:27:00,
2013-03-02 22:34:00,32.7,18.7,29.98,North,0,0.0,-999.0,56,0.00,Sunny,,0.00,Open2300\PHP-WU,2013-03-03 03:34:00,
2013-03-02 22:40:00,32.4,18.4,29.98,North,0,0.0,-999.0,56,0.00,Sunny,,0.00,Open2300\PHP-WU,2013-03-03 03:40:00,
2013-03-02 22:46:00,32.4,18.8,29.98,NNE,22,0.0,-999.0,57,0.00,Sunny,,0.00,Open2300\PHP-WU,2013-03-03 03:46:00,
2013-03-02 22:52:00,32.2,18.6,29.98,NNW,337,0.0,-999.0,57,0.00,Sunny,,0.00,Open2300\PHP-WU,2013-03-03 03:52:00,
2013-03-02 22:57:00,32.2,18.6,29.98,North,0,0.0,-999.0,57,0.00,Sunny,,0.00,Open2300\PHP-WU,2013-03-03 03:57:00,
2013-03-02 23:04:00,32.2,18.6,29.99,North,0,0.0,-999.0,57,0.00,Sunny,,0.00,Open2300\PHP-WU,2013-03-03 04:04:00,
2013-03-02 23:10:00,31.6,18.1,29.98,North,0,0.0,-999.0,57,0.00,Sunny,,0.00,Open2300\PHP-WU,2013-03-03 04:10:00,
2013-03-02 23:16:00,31.6,18.1,29.98,North,0,0.0,-999.0,57,0.00,Sunny,,0.00,Open2300\PHP-WU,2013-03-03 04:16:00,
2013-03-02 23:22:00,31.6,18.1,29.98,NW,315,0.0,-999.0,57,0.00,Sunny,,0.00,Open2300\PHP-WU,2013-03-03 04:22:00,
2013-03-02 23:28:00,31.3,17.8,29.98,NNW,337,0.0,-999.0,57,0.00,Sunny,,0.00,Open2300\PHP-WU,2013-03-03 04:28:00,
2013-03-02 23:34:00,31.3,17.8,29.98,WNW,292,0.0,-999.0,57,0.00,Sunny,,0.00,Open2300\PHP-WU,2013-03-03 04:34:00,
2013-03-02 23:40:00,31.1,17.6,29.98,West,270,0.0,-999.0,57,0.00,Sunny,,0.00,Open2300\PHP-WU,2013-03-03 04:40:00,
2013-03-02 23:46:00,30.7,17.2,29.98,NNE,22,0.0,-999.0,57,0.00,Sunny,,0.00,Open2300\PHP-WU,2013-03-03 04:46:00,
2013-03-02 23:52:00,30.7,17.7,29.98,NW,315,0.0,-999.0,58,0.00,Sunny,,0.00,Open2300\PHP-WU,2013-03-03 04:52:00,
2013-03-02 23:58:00,30.6,17.5,29.97,North,0,0.0,-999.0,58,0.00,Sunny,,0.00,Open2300\PHP-WU,2013-03-03 04:58:00,